PWSweather.com
Personal Weather Stations
Station Observations
MTCRAWFORD
Saddlebrook Subdivision, Mount Crawford, VA 22841

Saddlebrook SubdivisionMount Crawford, VA 22841

Lat: 38.3625069, Lon: -78.940918

Elevation: 1210

Station Type: OS-WMR968

Latest ConditionsUpdated 6:50:03 PM EST Sunday, Nov 18, 2018
Currently Today's Max Today's Min Today's Average
Temperature 44.8°F7.1°C 53.2°F11.8°C 26.8°F-2.9°C 38.9°F3.8°C
Dew Point 33.0°F0.6°C 37.7°F3.2°C 22.6°F-5.2°C 29.1°F-1.6°C
Winds Calm Calm 8.9 mph -14.3 kmh - - 1.8 mph 2.9 kmh
Wind Gusts 5.0 mph8.0 kmh 10.1 mph16.3 kmh - -
Humidity 63% 88% 46% 70%
Pressure 30.20 in1022.7 mb 30.35 in1027.8 mb 30.20 in1022.7 mb -
Hour Temp Dew Point Humidity Winds Wind Gusts Pressure Precip Precip Rate Daily Precip Total
06:50 PM 44.8°F7.1°C 33.0°F0.6°C 63% Calm Calm 5.0 mph8.0 kmh 30.20 in1022.7 mb 0.00 in0.0 mm 0.00 in0.0 mm 0.02 in0.5 mm
06:45 PM 45.0°F7.2°C 32.7°F0.4°C 62% 3.9 mph SSE6.3 kmh SSE 3.9 mph6.3 kmh 30.20 in1022.7 mb 0.00 in0.0 mm 0.00 in0.0 mm 0.02 in0.5 mm
06:40 PM 45.1°F7.3°C 32.9°F0.5°C 62% Calm Calm 6.2 mph10.0 kmh 30.20 in1022.7 mb 0.00 in0.0 mm 0.00 in0.0 mm 0.02 in0.5 mm
06:35 PM 45.1°F7.3°C 32.9°F0.5°C 62% 4.5 mph SSE7.2 kmh SSE 4.5 mph7.2 kmh 30.20 in1022.7 mb 0.00 in0.0 mm 0.00 in0.0 mm 0.02 in0.5 mm
06:30 PM 45.3°F7.4°C 32.7°F0.4°C 61% 2.8 mph SE4.5 kmh SE 4.5 mph7.2 kmh 30.20 in1022.7 mb 0.00 in0.0 mm 0.00 in0.0 mm 0.02 in0.5 mm
06:25 PM 45.3°F7.4°C 32.3°F0.2°C 60% 3.4 mph SE5.5 kmh SE 3.9 mph6.3 kmh 30.20 in1022.7 mb 0.00 in0.0 mm 0.00 in0.0 mm 0.02 in0.5 mm
06:20 PM 45.5°F7.5°C 32.4°F0.2°C 60% Calm Calm 3.4 mph5.5 kmh 30.20 in1022.7 mb 0.00 in0.0 mm 0.00 in0.0 mm 0.02 in0.5 mm
06:15 PM 45.5°F7.5°C 32.4°F0.2°C 60% 3.9 mph SE6.3 kmh SE 4.5 mph7.2 kmh 30.20 in1022.7 mb 0.00 in0.0 mm 0.00 in0.0 mm 0.02 in0.5 mm
06:10 PM 45.7°F7.6°C 32.2°F0.1°C 59% 2.8 mph SE4.5 kmh SE 2.8 mph4.5 kmh 30.20 in1022.7 mb 0.00 in0.0 mm 0.00 in0.0 mm 0.02 in0.5 mm
06:05 PM 45.9°F7.7°C 31.9°F-0.1°C 58% 3.4 mph SE5.5 kmh SE 3.4 mph5.5 kmh 30.20 in1022.7 mb 0.00 in0.0 mm 0.00 in0.0 mm 0.02 in0.5 mm
06:00 PM 46.0°F7.8°C 32.1°F0.1°C 58% 3.4 mph SE5.5 kmh SE 5.0 mph8.0 kmh 30.20 in1022.7 mb 0.00 in0.0 mm 0.00 in0.0 mm 0.02 in0.5 mm
05:55 PM 46.2°F7.9°C 32.3°F0.2°C 58% 3.9 mph SSE6.3 kmh SSE 3.9 mph6.3 kmh 30.20 in1022.7 mb 0.00 in0.0 mm 0.00 in0.0 mm 0.02 in0.5 mm
05:50 PM 46.4°F8.0°C 32.0°F0.0°C 57% 5.0 mph S8.0 kmh S 7.3 mph11.7 kmh 30.20 in1022.7 mb 0.00 in0.0 mm 0.00 in0.0 mm 0.02 in0.5 mm
05:44 PM 46.6°F8.1°C 32.2°F0.1°C 57% 3.4 mph S5.5 kmh S 5.0 mph8.0 kmh 30.20 in1022.7 mb 0.00 in0.0 mm 0.00 in0.0 mm 0.02 in0.5 mm
05:40 PM 46.8°F8.2°C 32.4°F0.2°C 57% 3.4 mph SW5.5 kmh SW 7.3 mph11.7 kmh 30.20 in1022.7 mb 0.00 in0.0 mm 0.00 in0.0 mm 0.02 in0.5 mm
05:35 PM 46.9°F8.3°C 32.1°F0.1°C 56% 5.0 mph S8.0 kmh S 6.7 mph10.8 kmh 30.20 in1022.7 mb 0.00 in0.0 mm 0.00 in0.0 mm 0.02 in0.5 mm
05:30 PM 47.3°F8.5°C 32.4°F0.2°C 56% 3.4 mph SE5.5 kmh SE 5.0 mph8.0 kmh 30.20 in1022.7 mb 0.00 in0.0 mm 0.00 in0.0 mm 0.02 in0.5 mm
05:25 PM 47.5°F8.6°C 32.1°F0.1°C 55% 5.0 mph SSE8.0 kmh SSE 5.0 mph8.0 kmh 30.20 in1022.7 mb 0.00 in0.0 mm 0.00 in0.0 mm 0.02 in0.5 mm
05:20 PM 47.8°F8.8°C 32.5°F0.3°C 55% 3.4 mph SSE5.5 kmh SSE 3.9 mph6.3 kmh 30.20 in1022.7 mb 0.00 in0.0 mm 0.00 in0.0 mm 0.02 in0.5 mm
05:15 PM 48.0°F8.9°C 32.6°F0.3°C 55% 3.9 mph SSW6.3 kmh SSW 6.7 mph10.8 kmh 30.20 in1022.7 mb 0.00 in0.0 mm 0.00 in0.0 mm 0.02 in0.5 mm
05:09 PM 48.4°F9.1°C 33.0°F0.6°C 55% 3.9 mph SE6.3 kmh SE 7.8 mph12.6 kmh 30.20 in1022.7 mb 0.00 in0.0 mm 0.00 in0.0 mm 0.02 in0.5 mm
05:05 PM 48.6°F9.2°C 32.7°F0.4°C 54% 6.7 mph SSE10.8 kmh SSE 6.7 mph10.8 kmh 30.20 in1022.7 mb 0.00 in0.0 mm 0.00 in0.0 mm 0.02 in0.5 mm
04:59 PM 48.9°F9.4°C 33.0°F0.6°C 54% 3.4 mph E5.5 kmh E 6.7 mph10.8 kmh 30.20 in1022.7 mb 0.00 in0.0 mm 0.00 in0.0 mm 0.02 in0.5 mm
04:55 PM 49.1°F9.5°C 33.2°F0.7°C 54% 3.9 mph SSW6.3 kmh SSW 7.3 mph11.7 kmh 30.20 in1022.7 mb 0.00 in0.0 mm 0.00 in0.0 mm 0.02 in0.5 mm
04:50 PM 49.5°F9.7°C 32.6°F0.3°C 52% 6.2 mph SSE10.0 kmh SSE 6.2 mph10.0 kmh 30.20 in1022.7 mb 0.00 in0.0 mm 0.00 in0.0 mm 0.02 in0.5 mm
04:45 PM 49.8°F9.9°C 32.9°F0.5°C 52% 6.2 mph SSE10.0 kmh SSE 6.7 mph10.8 kmh 30.20 in1022.7 mb 0.00 in0.0 mm 0.00 in0.0 mm 0.02 in0.5 mm
04:39 PM 50.2°F10.1°C 33.3°F0.7°C 52% 3.9 mph S6.3 kmh S 6.2 mph10.0 kmh 30.20 in1022.7 mb 0.00 in0.0 mm 0.00 in0.0 mm 0.02 in0.5 mm
04:35 PM 50.4°F10.2°C 33.4°F0.8°C 52% 3.4 mph SSE5.5 kmh SSE 6.2 mph10.0 kmh 30.20 in1022.7 mb 0.00 in0.0 mm 0.00 in0.0 mm 0.02 in0.5 mm
04:30 PM 50.7°F10.4°C 32.3°F0.2°C 49% 3.9 mph S6.3 kmh S 7.8 mph12.6 kmh 30.20 in1022.7 mb 0.00 in0.0 mm 0.00 in0.0 mm 0.02 in0.5 mm
04:25 PM 50.9°F10.5°C 32.4°F0.2°C 49% 3.4 mph SSW5.5 kmh SSW 6.7 mph10.8 kmh 30.20 in1022.7 mb 0.00 in0.0 mm 0.00 in0.0 mm 0.02 in0.5 mm
04:20 PM 51.3°F10.7°C 32.8°F0.4°C 49% 3.4 mph S5.5 kmh S 6.2 mph10.0 kmh 30.20 in1022.7 mb 0.00 in0.0 mm 0.00 in0.0 mm 0.02 in0.5 mm
04:15 PM 51.4°F10.8°C 32.9°F0.5°C 49% 3.4 mph SE5.5 kmh SE 4.5 mph7.2 kmh 30.20 in1022.7 mb 0.00 in0.0 mm 0.00 in0.0 mm 0.02 in0.5 mm
04:10 PM 51.6°F10.9°C 33.1°F0.6°C 49% 4.5 mph ESE7.2 kmh ESE 7.8 mph12.6 kmh 30.20 in1022.7 mb 0.00 in0.0 mm 0.00 in0.0 mm 0.02 in0.5 mm
04:04 PM 51.6°F10.9°C 33.1°F0.6°C 49% 3.9 mph SSE6.3 kmh SSE 6.2 mph10.0 kmh 30.20 in1022.7 mb 0.00 in0.0 mm 0.00 in0.0 mm 0.02 in0.5 mm
03:59 PM 51.8°F11.0°C 33.3°F0.7°C 49% 2.8 mph S4.5 kmh S 6.2 mph10.0 kmh 30.20 in1022.7 mb 0.00 in0.0 mm 0.00 in0.0 mm 0.02 in0.5 mm
03:55 PM 52.0°F11.1°C 33.4°F0.8°C 49% 4.5 mph ESE7.2 kmh ESE 5.0 mph8.0 kmh 30.20 in1022.7 mb 0.00 in0.0 mm 0.00 in0.0 mm 0.02 in0.5 mm
03:50 PM 52.2°F11.2°C 33.6°F0.9°C 49% 7.3 mph S11.7 kmh S 7.3 mph11.7 kmh 30.20 in1022.7 mb 0.00 in0.0 mm 0.00 in0.0 mm 0.02 in0.5 mm
03:45 PM 52.3°F11.3°C 33.8°F1.0°C 49% 3.9 mph S6.3 kmh S 5.0 mph8.0 kmh 30.20 in1022.7 mb 0.00 in0.0 mm 0.00 in0.0 mm 0.02 in0.5 mm
03:39 PM 52.7°F11.5°C 34.1°F1.2°C 49% 4.5 mph SE7.2 kmh SE 7.8 mph12.6 kmh 30.20 in1022.7 mb 0.00 in0.0 mm 0.00 in0.0 mm 0.02 in0.5 mm
03:35 PM 52.9°F11.6°C 34.3°F1.3°C 49% 5.0 mph ESE8.0 kmh ESE 6.7 mph10.8 kmh 30.20 in1022.7 mb 0.00 in0.0 mm 0.00 in0.0 mm 0.02 in0.5 mm
03:30 PM 52.9°F11.6°C 34.3°F1.3°C 49% 3.4 mph S5.5 kmh S 7.8 mph12.6 kmh 30.20 in1022.7 mb 0.00 in0.0 mm 0.00 in0.0 mm 0.02 in0.5 mm
03:25 PM 52.7°F11.5°C 34.1°F1.2°C 49% 4.5 mph SE7.2 kmh SE 6.7 mph10.8 kmh 30.20 in1022.7 mb 0.00 in0.0 mm 0.00 in0.0 mm 0.02 in0.5 mm
03:20 PM 52.7°F11.5°C 34.1°F1.2°C 49% 7.3 mph SSE11.7 kmh SSE 9.5 mph15.3 kmh 30.20 in1022.7 mb 0.00 in0.0 mm 0.00 in0.0 mm 0.02 in0.5 mm
03:15 PM 52.9°F11.6°C 34.3°F1.3°C 49% 7.8 mph S12.6 kmh S 10.1 mph16.3 kmh 30.20 in1022.7 mb 0.00 in0.0 mm 0.00 in0.0 mm 0.02 in0.5 mm
03:10 PM 53.1°F11.7°C 34.4°F1.3°C 49% 3.9 mph SE6.3 kmh SE 7.3 mph11.7 kmh 30.20 in1022.7 mb 0.00 in0.0 mm 0.00 in0.0 mm 0.02 in0.5 mm
03:05 PM 53.1°F11.7°C 32.9°F0.5°C 46% 3.4 mph SW5.5 kmh SW 4.5 mph7.2 kmh 30.20 in1022.7 mb 0.00 in0.0 mm 0.00 in0.0 mm 0.02 in0.5 mm
03:00 PM 53.2°F11.8°C 33.0°F0.6°C 46% 4.5 mph ESE7.2 kmh ESE 7.8 mph12.6 kmh 30.20 in1022.7 mb 0.00 in0.0 mm 0.00 in0.0 mm 0.02 in0.5 mm
02:55 PM 53.2°F11.8°C 33.0°F0.6°C 46% 6.7 mph S10.8 kmh S 7.3 mph11.7 kmh 30.20 in1022.7 mb 0.00 in0.0 mm 0.00 in0.0 mm 0.02 in0.5 mm
02:50 PM 53.2°F11.8°C 33.0°F0.6°C 46% 3.9 mph SSE6.3 kmh SSE 7.3 mph11.7 kmh 30.23 in1023.7 mb 0.00 in0.0 mm 0.00 in0.0 mm 0.02 in0.5 mm
02:45 PM 53.2°F11.8°C 34.6°F1.4°C 49% Calm Calm 3.9 mph6.3 kmh 30.23 in1023.7 mb 0.00 in0.0 mm 0.00 in0.0 mm 0.02 in0.5 mm
02:40 PM 53.1°F11.7°C 32.9°F0.5°C 46% 5.0 mph ESE8.0 kmh ESE 7.3 mph11.7 kmh 30.23 in1023.7 mb 0.00 in0.0 mm 0.00 in0.0 mm 0.02 in0.5 mm
02:35 PM 53.1°F11.7°C 32.9°F0.5°C 46% 5.0 mph SSE8.0 kmh SSE 7.3 mph11.7 kmh 30.23 in1023.7 mb 0.00 in0.0 mm 0.00 in0.0 mm 0.02 in0.5 mm
02:29 PM 53.1°F11.7°C 34.4°F1.3°C 49% 3.4 mph S5.5 kmh S 7.3 mph11.7 kmh 30.23 in1023.7 mb 0.00 in0.0 mm 0.00 in0.0 mm 0.02 in0.5 mm
02:25 PM 52.9°F11.6°C 34.3°F1.3°C 49% 3.9 mph SSE6.3 kmh SSE 6.7 mph10.8 kmh 30.23 in1023.7 mb 0.00 in0.0 mm 0.00 in0.0 mm 0.02 in0.5 mm
02:19 PM 52.9°F11.6°C 32.7°F0.4°C 46% 3.4 mph WSW5.5 kmh WSW 6.7 mph10.8 kmh 30.23 in1023.7 mb 0.00 in0.0 mm 0.00 in0.0 mm 0.02 in0.5 mm
02:14 PM 53.1°F11.7°C 32.9°F0.5°C 46% 3.4 mph SE5.5 kmh SE 10.1 mph16.3 kmh 30.23 in1023.7 mb 0.00 in0.0 mm 0.00 in0.0 mm 0.02 in0.5 mm
02:10 PM 53.1°F11.7°C 34.4°F1.3°C 49% 8.9 mph ESE14.3 kmh ESE 8.9 mph14.3 kmh 30.23 in1023.7 mb 0.00 in0.0 mm 0.00 in0.0 mm 0.02 in0.5 mm
02:05 PM 53.1°F11.7°C 34.4°F1.3°C 49% 4.5 mph SE7.2 kmh SE 6.2 mph10.0 kmh 30.23 in1023.7 mb 0.00 in0.0 mm 0.00 in0.0 mm 0.02 in0.5 mm
02:00 PM 52.9°F11.6°C 34.3°F1.3°C 49% 3.9 mph SSE6.3 kmh SSE 6.7 mph10.8 kmh 30.23 in1023.7 mb 0.00 in0.0 mm 0.00 in0.0 mm 0.02 in0.5 mm
01:54 PM 52.7°F11.5°C 34.1°F1.2°C 49% 5.0 mph SSE8.0 kmh SSE 5.0 mph8.0 kmh 30.23 in1023.7 mb 0.00 in0.0 mm 0.00 in0.0 mm 0.02 in0.5 mm
01:50 PM 52.5°F11.4°C 33.9°F1.1°C 49% 4.5 mph SE7.2 kmh SE 7.8 mph12.6 kmh 30.23 in1023.7 mb 0.00 in0.0 mm 0.00 in0.0 mm 0.02 in0.5 mm
01:44 PM 52.5°F11.4°C 33.9°F1.1°C 49% 6.2 mph SSE10.0 kmh SSE 6.2 mph10.0 kmh 30.23 in1023.7 mb 0.00 in0.0 mm 0.00 in0.0 mm 0.02 in0.5 mm
01:40 PM 52.3°F11.3°C 33.8°F1.0°C 49% 3.9 mph SE6.3 kmh SE 4.5 mph7.2 kmh 30.23 in1023.7 mb 0.01 in0.3 mm 0.00 in0.0 mm 0.02 in0.5 mm
01:35 PM 52.0°F11.1°C 33.4°F0.8°C 49% 3.4 mph S5.5 kmh S 7.8 mph12.6 kmh 30.23 in1023.7 mb 0.01 in0.3 mm 0.00 in0.0 mm 0.02 in0.5 mm
01:30 PM 52.0°F11.1°C 33.4°F0.8°C 49% 4.5 mph SSE7.2 kmh SSE 7.8 mph12.6 kmh 30.23 in1023.7 mb 0.01 in0.3 mm 0.00 in0.0 mm 0.02 in0.5 mm
01:25 PM 52.0°F11.1°C 33.4°F0.8°C 49% 5.6 mph S9.0 kmh S 6.7 mph10.8 kmh 30.23 in1023.7 mb 0.01 in0.3 mm 0.00 in0.0 mm 0.02 in0.5 mm
01:20 PM 52.0°F11.1°C 33.4°F0.8°C 49% 4.5 mph SSE7.2 kmh SSE 4.5 mph7.2 kmh 30.26 in1024.7 mb 0.01 in0.3 mm 0.00 in0.0 mm 0.02 in0.5 mm
01:15 PM 51.8°F11.0°C 33.3°F0.7°C 49% 2.8 mph N4.5 kmh N 3.4 mph5.5 kmh 30.26 in1024.7 mb 0.01 in0.3 mm 0.00 in0.0 mm 0.02 in0.5 mm
01:10 PM 51.8°F11.0°C 33.3°F0.7°C 49% 3.4 mph SSE5.5 kmh SSE 4.5 mph7.2 kmh 30.26 in1024.7 mb 0.01 in0.3 mm 0.00 in0.0 mm 0.02 in0.5 mm
01:04 PM 51.6°F10.9°C 33.1°F0.6°C 49% Calm Calm 3.9 mph6.3 kmh 30.26 in1024.7 mb 0.01 in0.3 mm 0.00 in0.0 mm 0.02 in0.5 mm
01:00 PM 51.4°F10.8°C 32.9°F0.5°C 49% 3.9 mph SE6.3 kmh SE 6.2 mph10.0 kmh 30.26 in1024.7 mb 0.01 in0.3 mm 0.00 in0.0 mm 0.02 in0.5 mm
12:54 PM 51.6°F10.9°C 33.1°F0.6°C 49% 7.3 mph ESE11.7 kmh ESE 7.3 mph11.7 kmh 30.26 in1024.7 mb 0.01 in0.3 mm 0.00 in0.0 mm 0.02 in0.5 mm
12:50 PM 51.3°F10.7°C 32.8°F0.4°C 49% 3.4 mph SSE5.5 kmh SSE 4.5 mph7.2 kmh 30.26 in1024.7 mb 0.01 in0.3 mm 0.00 in0.0 mm 0.02 in0.5 mm
12:44 PM 51.3°F10.7°C 32.8°F0.4°C 49% 2.8 mph SE4.5 kmh SE 5.6 mph9.0 kmh 30.26 in1024.7 mb 0.01 in0.3 mm 0.00 in0.0 mm 0.02 in0.5 mm
12:40 PM 51.3°F10.7°C 34.3°F1.3°C 52% 3.9 mph SE6.3 kmh SE 4.5 mph7.2 kmh 30.26 in1024.7 mb 0.01 in0.3 mm 0.12 in3.0 mm 0.02 in0.5 mm
12:35 PM 50.7°F10.4°C 33.8°F1.0°C 52% 5.0 mph SE8.0 kmh SE 6.7 mph10.8 kmh 30.26 in1024.7 mb 0.00 in0.0 mm 0.00 in0.0 mm 0.01 in0.3 mm
12:30 PM 50.2°F10.1°C 33.3°F0.7°C 52% 2.8 mph SSE4.5 kmh SSE 6.2 mph10.0 kmh 30.26 in1024.7 mb 0.00 in0.0 mm 0.00 in0.0 mm 0.01 in0.3 mm
12:25 PM 49.8°F9.9°C 32.9°F0.5°C 52% 3.9 mph S6.3 kmh S 5.0 mph8.0 kmh 30.26 in1024.7 mb 0.00 in0.0 mm 0.00 in0.0 mm 0.01 in0.3 mm
12:19 PM 49.6°F9.8°C 32.8°F0.4°C 52% Calm Calm 7.3 mph11.7 kmh 30.29 in1025.7 mb 0.00 in0.0 mm 0.00 in0.0 mm 0.01 in0.3 mm
12:14 PM 49.6°F9.8°C 32.8°F0.4°C 52% Calm Calm 4.5 mph7.2 kmh 30.29 in1025.7 mb 0.00 in0.0 mm 0.00 in0.0 mm 0.01 in0.3 mm
12:10 PM 49.5°F9.7°C 32.6°F0.3°C 52% Calm Calm 4.5 mph7.2 kmh 30.29 in1025.7 mb 0.00 in0.0 mm 0.00 in0.0 mm 0.01 in0.3 mm
12:05 PM 49.5°F9.7°C 32.6°F0.3°C 52% 2.8 mph SE4.5 kmh SE 4.5 mph7.2 kmh 30.29 in1025.7 mb 0.00 in0.0 mm 0.00 in0.0 mm 0.01 in0.3 mm
11:59 AM 49.5°F9.7°C 33.5°F0.8°C 54% 3.4 mph SE5.5 kmh SE 4.5 mph7.2 kmh 30.29 in1025.7 mb 0.00 in0.0 mm 0.00 in0.0 mm 0.01 in0.3 mm
11:55 AM 48.9°F9.4°C 33.0°F0.6°C 54% Calm Calm -- 30.29 in1025.7 mb 0.00 in0.0 mm 0.00 in0.0 mm 0.01 in0.3 mm
11:50 AM 48.7°F9.3°C 32.9°F0.5°C 54% 3.4 mph S5.5 kmh S 6.7 mph10.8 kmh 30.29 in1025.7 mb 0.00 in0.0 mm 0.00 in0.0 mm 0.01 in0.3 mm
11:45 AM 48.0°F8.9°C 32.6°F0.3°C 55% 4.5 mph SSE7.2 kmh SSE 4.5 mph7.2 kmh 30.29 in1025.7 mb 0.00 in0.0 mm 0.00 in0.0 mm 0.01 in0.3 mm
11:40 AM 47.8°F8.8°C 31.1°F-0.5°C 52% 3.4 mph S5.5 kmh S 5.0 mph8.0 kmh 30.29 in1025.7 mb 0.00 in0.0 mm 0.00 in0.0 mm 0.01 in0.3 mm
11:35 AM 47.8°F8.8°C 31.1°F-0.5°C 52% 2.8 mph SE4.5 kmh SE 5.0 mph8.0 kmh 30.29 in1025.7 mb 0.00 in0.0 mm 0.00 in0.0 mm 0.01 in0.3 mm
11:30 AM 47.7°F8.7°C 32.3°F0.2°C 55% 2.8 mph SE4.5 kmh SE 5.0 mph8.0 kmh 30.29 in1025.7 mb 0.00 in0.0 mm 0.00 in0.0 mm 0.01 in0.3 mm
11:25 AM 47.5°F8.6°C 32.1°F0.1°C 55% 4.5 mph S7.2 kmh S 4.5 mph7.2 kmh 30.29 in1025.7 mb 0.00 in0.0 mm 0.00 in0.0 mm 0.01 in0.3 mm
11:20 AM 47.5°F8.6°C 32.1°F0.1°C 55% 2.8 mph S4.5 kmh S 3.9 mph6.3 kmh 30.32 in1026.8 mb 0.00 in0.0 mm 0.00 in0.0 mm 0.01 in0.3 mm
11:15 AM 47.3°F8.5°C 32.0°F0.0°C 55% 3.9 mph SE6.3 kmh SE 3.9 mph6.3 kmh 30.32 in1026.8 mb 0.00 in0.0 mm 0.00 in0.0 mm 0.01 in0.3 mm
11:10 AM 47.1°F8.4°C 31.8°F-0.1°C 55% 6.2 mph SSE10.0 kmh SSE 6.2 mph10.0 kmh 30.32 in1026.8 mb 0.00 in0.0 mm 0.00 in0.0 mm 0.01 in0.3 mm
11:05 AM 46.8°F8.2°C 32.4°F0.2°C 57% Calm Calm 3.9 mph6.3 kmh 30.32 in1026.8 mb 0.01 in0.3 mm 0.00 in0.0 mm 0.01 in0.3 mm
11:00 AM 46.2°F7.9°C 32.3°F0.2°C 58% 3.9 mph S6.3 kmh S 5.0 mph8.0 kmh 30.32 in1026.8 mb 0.01 in0.3 mm 0.00 in0.0 mm 0.01 in0.3 mm
10:55 AM 45.7°F7.6°C 33.0°F0.6°C 61% 3.9 mph SE6.3 kmh SE 3.9 mph6.3 kmh 30.32 in1026.8 mb 0.01 in0.3 mm 0.00 in0.0 mm 0.01 in0.3 mm
10:50 AM 45.0°F7.2°C 32.7°F0.4°C 62% 3.9 mph SE6.3 kmh SE 5.0 mph8.0 kmh 30.32 in1026.8 mb 0.01 in0.3 mm 0.00 in0.0 mm 0.01 in0.3 mm
10:44 AM 44.4°F6.9°C 33.8°F1.0°C 66% 2.8 mph SE4.5 kmh SE 6.7 mph10.8 kmh 30.32 in1026.8 mb 0.01 in0.3 mm 0.00 in0.0 mm 0.01 in0.3 mm
10:40 AM 43.7°F6.5°C 32.7°F0.4°C 65% 3.4 mph SE5.5 kmh SE 5.0 mph8.0 kmh 30.32 in1026.8 mb 0.01 in0.3 mm 0.00 in0.0 mm 0.01 in0.3 mm
10:34 AM 43.2°F6.2°C 32.6°F0.3°C 66% 3.4 mph SE5.5 kmh SE 3.9 mph6.3 kmh 30.32 in1026.8 mb 0.01 in0.3 mm 0.00 in0.0 mm 0.01 in0.3 mm
10:30 AM 42.8°F6.0°C 32.6°F0.3°C 67% Calm Calm -- 30.32 in1026.8 mb 0.01 in0.3 mm 0.00 in0.0 mm 0.01 in0.3 mm
10:24 AM 42.4°F5.8°C 33.0°F0.6°C 69% Calm Calm -- 30.32 in1026.8 mb 0.01 in0.3 mm 0.00 in0.0 mm 0.01 in0.3 mm
10:20 AM 42.3°F5.7°C 34.9°F1.6°C 75% 3.4 mph SE5.5 kmh SE 3.4 mph5.5 kmh 30.35 in1027.8 mb 0.01 in0.3 mm 0.00 in0.0 mm 0.01 in0.3 mm
10:15 AM 42.3°F5.7°C 35.9°F2.2°C 78% 3.4 mph SE5.5 kmh SE 3.4 mph5.5 kmh 30.35 in1027.8 mb 0.01 in0.3 mm 0.00 in0.0 mm 0.01 in0.3 mm
10:10 AM 42.3°F5.7°C 36.2°F2.3°C 79% 3.4 mph SE5.5 kmh SE 5.0 mph8.0 kmh 30.35 in1027.8 mb 0.01 in0.3 mm 0.12 in3.0 mm 0.01 in0.3 mm
10:05 AM 42.1°F5.6°C 36.7°F2.6°C 81% 3.4 mph ESE5.5 kmh ESE 3.4 mph5.5 kmh 30.35 in1027.8 mb 0.00 in0.0 mm 0.00 in0.0 mm 0.00 in0.0 mm
10:00 AM 41.9°F5.5°C 37.7°F3.2°C 85% 3.4 mph ESE5.5 kmh ESE 3.4 mph5.5 kmh 30.35 in1027.8 mb 0.00 in0.0 mm 0.00 in0.0 mm 0.00 in0.0 mm
09:55 AM 41.2°F5.1°C 37.6°F3.1°C 87% 3.9 mph ESE6.3 kmh ESE 3.9 mph6.3 kmh 30.35 in1027.8 mb 0.00 in0.0 mm 0.00 in0.0 mm 0.00 in0.0 mm
09:49 AM 40.3°F4.6°C 37.0°F2.8°C 88% Calm Calm -- 30.35 in1027.8 mb 0.00 in0.0 mm 0.00 in0.0 mm 0.00 in0.0 mm
09:45 AM 39.2°F4.0°C 36.0°F2.2°C 88% Calm Calm -- 30.35 in1027.8 mb 0.00 in0.0 mm 0.00 in0.0 mm 0.00 in0.0 mm
09:39 AM 38.5°F3.6°C 35.2°F1.8°C 88% Calm Calm -- 30.35 in1027.8 mb 0.00 in0.0 mm 0.00 in0.0 mm 0.00 in0.0 mm
09:34 AM 37.4°F3.0°C 33.9°F1.1°C 87% Calm Calm -- 30.35 in1027.8 mb 0.00 in0.0 mm 0.00 in0.0 mm 0.00 in0.0 mm
09:30 AM 36.9°F2.7°C 33.7°F0.9°C 88% Calm Calm -- 30.35 in1027.8 mb 0.00 in0.0 mm 0.00 in0.0 mm 0.00 in0.0 mm
09:25 AM 36.3°F2.4°C 32.8°F0.4°C 87% Calm Calm -- 30.35 in1027.8 mb 0.00 in0.0 mm 0.00 in0.0 mm 0.00 in0.0 mm
09:20 AM 35.8°F2.1°C 32.0°F0.0°C 86% Calm Calm -- 30.35 in1027.8 mb 0.00 in0.0 mm 0.00 in0.0 mm 0.00 in0.0 mm
09:14 AM 35.4°F1.9°C 31.7°F-0.2°C 86% Calm Calm -- 30.35 in1027.8 mb 0.00 in0.0 mm 0.00 in0.0 mm 0.00 in0.0 mm
09:10 AM 35.4°F1.9°C 32.2°F0.1°C 88% Calm Calm -- 30.35 in1027.8 mb 0.00 in0.0 mm 0.00 in0.0 mm 0.00 in0.0 mm
09:05 AM 35.2°F1.8°C 32.1°F0.1°C 88% Calm Calm -- 30.35 in1027.8 mb 0.00 in0.0 mm 0.00 in0.0 mm 0.00 in0.0 mm
08:59 AM 34.5°F1.4°C 31.3°F-0.4°C 88% Calm Calm -- 30.35 in1027.8 mb 0.00 in0.0 mm 0.00 in0.0 mm 0.00 in0.0 mm
08:55 AM 33.8°F1.0°C 30.4°F-0.9°C 87% Calm Calm -- 30.35 in1027.8 mb 0.00 in0.0 mm 0.00 in0.0 mm 0.00 in0.0 mm
08:49 AM 33.4°F0.8°C 30.0°F-1.1°C 87% Calm Calm -- 30.35 in1027.8 mb 0.00 in0.0 mm 0.00 in0.0 mm 0.00 in0.0 mm
08:45 AM 33.3°F0.7°C 30.1°F-1.1°C 88% Calm Calm -- 30.35 in1027.8 mb 0.00 in0.0 mm 0.00 in0.0 mm 0.00 in0.0 mm
08:40 AM 33.1°F0.6°C 29.9°F-1.2°C 88% Calm Calm -- 30.35 in1027.8 mb 0.00 in0.0 mm 0.00 in0.0 mm 0.00 in0.0 mm
08:35 AM 32.5°F0.3°C 29.1°F-1.6°C 87% Calm Calm -- 30.35 in1027.8 mb 0.00 in0.0 mm 0.00 in0.0 mm 0.00 in0.0 mm
08:29 AM 32.0°F0.0°C 28.6°F-1.9°C 87% Calm Calm -- 30.35 in1027.8 mb 0.00 in0.0 mm 0.00 in0.0 mm 0.00 in0.0 mm
08:25 AM 31.8°F-0.1°C 28.7°F-1.8°C 88% Calm Calm -- 30.35 in1027.8 mb 0.00 in0.0 mm 0.00 in0.0 mm 0.00 in0.0 mm
08:20 AM 31.3°F-0.4°C 28.2°F-2.1°C 88% Calm Calm -- 30.35 in1027.8 mb 0.00 in0.0 mm 0.00 in0.0 mm 0.00 in0.0 mm
08:14 AM 30.7°F-0.7°C 27.6°F-2.4°C 88% Calm Calm -- 30.35 in1027.8 mb 0.00 in0.0 mm 0.00 in0.0 mm 0.00 in0.0 mm
08:10 AM 30.2°F-1.0°C 27.1°F-2.7°C 88% Calm Calm -- 30.35 in1027.8 mb 0.00 in0.0 mm 0.00 in0.0 mm 0.00 in0.0 mm
08:04 AM 29.5°F-1.4°C 26.4°F-3.1°C 88% Calm Calm -- 30.35 in1027.8 mb 0.00 in0.0 mm 0.00 in0.0 mm 0.00 in0.0 mm
08:00 AM 28.9°F-1.7°C 25.6°F-3.6°C 87% Calm Calm -- 30.35 in1027.8 mb 0.00 in0.0 mm 0.00 in0.0 mm 0.00 in0.0 mm
07:55 AM 28.2°F-2.1°C 24.9°F-3.9°C 87% Calm Calm -- 30.35 in1027.8 mb 0.00 in0.0 mm 0.00 in0.0 mm 0.00 in0.0 mm
07:50 AM 27.7°F-2.4°C 24.1°F-4.4°C 86% Calm Calm -- 30.35 in1027.8 mb 0.00 in0.0 mm 0.00 in0.0 mm 0.00 in0.0 mm
07:45 AM 27.3°F-2.6°C 23.7°F-4.6°C 86% Calm Calm -- 30.35 in1027.8 mb 0.00 in0.0 mm 0.00 in0.0 mm 0.00 in0.0 mm
07:40 AM 27.3°F-2.6°C 23.7°F-4.6°C 86% Calm Calm -- 30.35 in1027.8 mb 0.00 in0.0 mm 0.00 in0.0 mm 0.00 in0.0 mm
07:35 AM 27.3°F-2.6°C 23.7°F-4.6°C 86% Calm Calm -- 30.35 in1027.8 mb 0.00 in0.0 mm 0.00 in0.0 mm 0.00 in0.0 mm
07:30 AM 27.3°F-2.6°C 23.7°F-4.6°C 86% Calm Calm -- 30.35 in1027.8 mb 0.00 in0.0 mm 0.00 in0.0 mm 0.00 in0.0 mm
07:24 AM 27.1°F-2.7°C 23.5°F-4.7°C 86% Calm Calm -- 30.35 in1027.8 mb 0.00 in0.0 mm 0.00 in0.0 mm 0.00 in0.0 mm
07:19 AM 27.1°F-2.7°C 23.5°F-4.7°C 86% Calm Calm -- 30.35 in1027.8 mb 0.00 in0.0 mm 0.00 in0.0 mm 0.00 in0.0 mm
07:14 AM 27.0°F-2.8°C 23.1°F-4.9°C 85% Calm Calm -- 30.35 in1027.8 mb 0.00 in0.0 mm 0.00 in0.0 mm 0.00 in0.0 mm
07:10 AM 27.0°F-2.8°C 23.1°F-4.9°C 85% Calm Calm -- 30.35 in1027.8 mb 0.00 in0.0 mm 0.00 in0.0 mm 0.00 in0.0 mm
07:05 AM 27.1°F-2.7°C 23.2°F-4.9°C 85% Calm Calm -- 30.35 in1027.8 mb 0.00 in0.0 mm 0.00 in0.0 mm 0.00 in0.0 mm
07:00 AM 27.1°F-2.7°C 23.2°F-4.9°C 85% Calm Calm -- 30.35 in1027.8 mb 0.00 in0.0 mm 0.00 in0.0 mm 0.00 in0.0 mm
06:55 AM 27.0°F-2.8°C 23.1°F-4.9°C 85% Calm Calm -- 30.35 in1027.8 mb 0.00 in0.0 mm 0.00 in0.0 mm 0.00 in0.0 mm
06:50 AM 27.0°F-2.8°C 23.1°F-4.9°C 85% Calm Calm -- 30.35 in1027.8 mb 0.00 in0.0 mm 0.00 in0.0 mm 0.00 in0.0 mm
06:45 AM 27.0°F-2.8°C 23.1°F-4.9°C 85% Calm Calm -- 30.35 in1027.8 mb 0.00 in0.0 mm 0.00 in0.0 mm 0.00 in0.0 mm
06:39 AM 26.8°F-2.9°C 22.9°F-5.1°C 85% Calm Calm -- 30.35 in1027.8 mb 0.00 in0.0 mm 0.00 in0.0 mm 0.00 in0.0 mm
06:35 AM 26.8°F-2.9°C 22.6°F-5.2°C 84% Calm Calm -- 30.35 in1027.8 mb 0.00 in0.0 mm 0.00 in0.0 mm 0.00 in0.0 mm
06:29 AM 26.8°F-2.9°C 22.6°F-5.2°C 84% Calm Calm -- 30.35 in1027.8 mb 0.00 in0.0 mm 0.00 in0.0 mm 0.00 in0.0 mm
06:25 AM 27.0°F-2.8°C 22.8°F-5.1°C 84% Calm Calm -- 30.35 in1027.8 mb 0.00 in0.0 mm 0.00 in0.0 mm 0.00 in0.0 mm
06:20 AM 27.1°F-2.7°C 23.0°F-5.0°C 84% Calm Calm -- 30.35 in1027.8 mb 0.00 in0.0 mm 0.00 in0.0 mm 0.00 in0.0 mm
06:15 AM 27.5°F-2.5°C 23.3°F-4.8°C 84% Calm Calm -- 30.35 in1027.8 mb 0.00 in0.0 mm 0.00 in0.0 mm 0.00 in0.0 mm
06:09 AM 27.9°F-2.3°C 23.7°F-4.6°C 84% Calm Calm -- 30.35 in1027.8 mb 0.00 in0.0 mm 0.00 in0.0 mm 0.00 in0.0 mm
06:04 AM 27.9°F-2.3°C 24.0°F-4.4°C 85% Calm Calm -- 30.35 in1027.8 mb 0.00 in0.0 mm 0.00 in0.0 mm 0.00 in0.0 mm
06:00 AM 28.0°F-2.2°C 24.1°F-4.4°C 85% Calm Calm -- 30.35 in1027.8 mb 0.00 in0.0 mm 0.00 in0.0 mm 0.00 in0.0 mm
05:54 AM 28.0°F-2.2°C 24.1°F-4.4°C 85% Calm Calm -- 30.35 in1027.8 mb 0.00 in0.0 mm 0.00 in0.0 mm 0.00 in0.0 mm
05:50 AM 27.9°F-2.3°C 23.7°F-4.6°C 84% Calm Calm -- 30.35 in1027.8 mb 0.00 in0.0 mm 0.00 in0.0 mm 0.00 in0.0 mm
05:44 AM 27.9°F-2.3°C 23.7°F-4.6°C 84% Calm Calm -- 30.35 in1027.8 mb 0.00 in0.0 mm 0.00 in0.0 mm 0.00 in0.0 mm
05:40 AM 27.9°F-2.3°C 23.7°F-4.6°C 84% Calm Calm -- 30.35 in1027.8 mb 0.00 in0.0 mm 0.00 in0.0 mm 0.00 in0.0 mm
05:35 AM 27.9°F-2.3°C 23.7°F-4.6°C 84% Calm Calm -- 30.32 in1026.8 mb 0.00 in0.0 mm 0.00 in0.0 mm 0.00 in0.0 mm
05:30 AM 27.9°F-2.3°C 23.7°F-4.6°C 84% Calm Calm -- 30.32 in1026.8 mb 0.00 in0.0 mm 0.00 in0.0 mm 0.00 in0.0 mm
05:25 AM 27.9°F-2.3°C 23.7°F-4.6°C 84% Calm Calm -- 30.32 in1026.8 mb 0.00 in0.0 mm 0.00 in0.0 mm 0.00 in0.0 mm
05:19 AM 27.9°F-2.3°C 23.7°F-4.6°C 84% Calm Calm -- 30.32 in1026.8 mb 0.00 in0.0 mm 0.00 in0.0 mm 0.00 in0.0 mm
05:15 AM 28.0°F-2.2°C 23.8°F-4.6°C 84% Calm Calm -- 30.32 in1026.8 mb 0.00 in0.0 mm 0.00 in0.0 mm 0.00 in0.0 mm
05:10 AM 28.0°F-2.2°C 23.6°F-4.7°C 83% Calm Calm -- 30.32 in1026.8 mb 0.00 in0.0 mm 0.00 in0.0 mm 0.00 in0.0 mm
05:05 AM 28.2°F-2.1°C 23.7°F-4.6°C 83% Calm Calm -- 30.32 in1026.8 mb 0.00 in0.0 mm 0.00 in0.0 mm 0.00 in0.0 mm
05:00 AM 28.4°F-2.0°C 23.9°F-4.5°C 83% Calm Calm -- 30.32 in1026.8 mb 0.00 in0.0 mm 0.00 in0.0 mm 0.00 in0.0 mm
04:54 AM 28.6°F-1.9°C 24.1°F-4.4°C 83% Calm Calm -- 30.32 in1026.8 mb 0.00 in0.0 mm 0.00 in0.0 mm 0.00 in0.0 mm
04:50 AM 28.8°F-1.8°C 24.3°F-4.3°C 83% Calm Calm -- 30.32 in1026.8 mb 0.00 in0.0 mm 0.00 in0.0 mm 0.00 in0.0 mm
04:45 AM 28.8°F-1.8°C 24.3°F-4.3°C 83% Calm Calm -- 30.32 in1026.8 mb 0.00 in0.0 mm 0.00 in0.0 mm 0.00 in0.0 mm
04:40 AM 28.8°F-1.8°C 24.6°F-4.1°C 84% Calm Calm -- 30.32 in1026.8 mb 0.00 in0.0 mm 0.00 in0.0 mm 0.00 in0.0 mm
04:34 AM 28.8°F-1.8°C 24.6°F-4.1°C 84% Calm Calm -- 30.32 in1026.8 mb 0.00 in0.0 mm 0.00 in0.0 mm 0.00 in0.0 mm
04:30 AM 28.6°F-1.9°C 24.1°F-4.4°C 83% Calm Calm -- 30.32 in1026.8 mb 0.00 in0.0 mm 0.00 in0.0 mm 0.00 in0.0 mm
04:25 AM 28.4°F-2.0°C 24.2°F-4.3°C 84% Calm Calm -- 30.32 in1026.8 mb 0.00 in0.0 mm 0.00 in0.0 mm 0.00 in0.0 mm
04:19 AM 28.4°F-2.0°C 23.9°F-4.5°C 83% Calm Calm -- 30.32 in1026.8 mb 0.00 in0.0 mm 0.00 in0.0 mm 0.00 in0.0 mm
04:15 AM 28.4°F-2.0°C 23.9°F-4.5°C 83% Calm Calm -- 30.32 in1026.8 mb 0.00 in0.0 mm 0.00 in0.0 mm 0.00 in0.0 mm
04:10 AM 28.4°F-2.0°C 23.9°F-4.5°C 83% Calm Calm -- 30.32 in1026.8 mb 0.00 in0.0 mm 0.00 in0.0 mm 0.00 in0.0 mm
04:05 AM 28.4°F-2.0°C 23.9°F-4.5°C 83% Calm Calm -- 30.32 in1026.8 mb 0.00 in0.0 mm 0.00 in0.0 mm 0.00 in0.0 mm
04:00 AM 28.6°F-1.9°C 24.1°F-4.4°C 83% Calm Calm -- 30.32 in1026.8 mb 0.00 in0.0 mm 0.00 in0.0 mm 0.00 in0.0 mm
03:55 AM 28.4°F-2.0°C 23.9°F-4.5°C 83% Calm Calm -- 30.32 in1026.8 mb 0.00 in0.0 mm 0.00 in0.0 mm 0.00 in0.0 mm
03:50 AM 28.4°F-2.0°C 23.9°F-4.5°C 83% Calm Calm -- 30.32 in1026.8 mb 0.00 in0.0 mm 0.00 in0.0 mm 0.00 in0.0 mm
03:44 AM 28.4°F-2.0°C 23.6°F-4.7°C 82% Calm Calm -- 30.32 in1026.8 mb 0.00 in0.0 mm 0.00 in0.0 mm 0.00 in0.0 mm
03:40 AM 28.4°F-2.0°C 23.6°F-4.7°C 82% Calm Calm -- 30.32 in1026.8 mb 0.00 in0.0 mm 0.00 in0.0 mm 0.00 in0.0 mm
03:34 AM 28.6°F-1.9°C 23.8°F-4.6°C 82% Calm Calm -- 30.32 in1026.8 mb 0.00 in0.0 mm 0.00 in0.0 mm 0.00 in0.0 mm
03:30 AM 28.6°F-1.9°C 23.8°F-4.6°C 82% Calm Calm -- 30.32 in1026.8 mb 0.00 in0.0 mm 0.00 in0.0 mm 0.00 in0.0 mm
03:25 AM 28.8°F-1.8°C 24.0°F-4.4°C 82% Calm Calm -- 30.32 in1026.8 mb 0.00 in0.0 mm 0.00 in0.0 mm 0.00 in0.0 mm
03:20 AM 28.9°F-1.7°C 24.2°F-4.3°C 82% Calm Calm -- 30.32 in1026.8 mb 0.00 in0.0 mm 0.00 in0.0 mm 0.00 in0.0 mm
03:15 AM 28.9°F-1.7°C 24.2°F-4.3°C 82% Calm Calm -- 30.32 in1026.8 mb 0.00 in0.0 mm 0.00 in0.0 mm 0.00 in0.0 mm
03:10 AM 29.1°F-1.6°C 24.3°F-4.3°C 82% Calm Calm -- 30.32 in1026.8 mb 0.00 in0.0 mm 0.00 in0.0 mm 0.00 in0.0 mm
03:05 AM 29.1°F-1.6°C 24.3°F-4.3°C 82% Calm Calm -- 30.32 in1026.8 mb 0.00 in0.0 mm 0.00 in0.0 mm 0.00 in0.0 mm
03:00 AM 29.3°F-1.5°C 24.5°F-4.2°C 82% Calm Calm -- 30.32 in1026.8 mb 0.00 in0.0 mm 0.00 in0.0 mm 0.00 in0.0 mm
02:55 AM 29.5°F-1.4°C 24.7°F-4.1°C 82% Calm Calm -- 30.32 in1026.8 mb 0.00 in0.0 mm 0.00 in0.0 mm 0.00 in0.0 mm
02:49 AM 29.5°F-1.4°C 24.7°F-4.1°C 82% Calm Calm -- 30.32 in1026.8 mb 0.00 in0.0 mm 0.00 in0.0 mm 0.00 in0.0 mm
02:45 AM 29.5°F-1.4°C 24.7°F-4.1°C 82% Calm Calm -- 30.32 in1026.8 mb 0.00 in0.0 mm 0.00 in0.0 mm 0.00 in0.0 mm
02:40 AM 29.3°F-1.5°C 24.2°F-4.3°C 81% Calm Calm -- 30.32 in1026.8 mb 0.00 in0.0 mm 0.00 in0.0 mm 0.00 in0.0 mm
02:34 AM 29.5°F-1.4°C 24.4°F-4.2°C 81% Calm Calm -- 30.32 in1026.8 mb 0.00 in0.0 mm 0.00 in0.0 mm 0.00 in0.0 mm
02:30 AM 29.5°F-1.4°C 24.7°F-4.1°C 82% Calm Calm -- 30.32 in1026.8 mb 0.00 in0.0 mm 0.00 in0.0 mm 0.00 in0.0 mm
02:25 AM 29.5°F-1.4°C 24.4°F-4.2°C 81% Calm Calm -- 30.32 in1026.8 mb 0.00 in0.0 mm 0.00 in0.0 mm 0.00 in0.0 mm
02:20 AM 29.5°F-1.4°C 24.7°F-4.1°C 82% Calm Calm -- 30.32 in1026.8 mb 0.00 in0.0 mm 0.00 in0.0 mm 0.00 in0.0 mm
02:15 AM 29.5°F-1.4°C 24.4°F-4.2°C 81% Calm Calm -- 30.32 in1026.8 mb 0.00 in0.0 mm 0.00 in0.0 mm 0.00 in0.0 mm
02:10 AM 29.3°F-1.5°C 24.2°F-4.3°C 81% Calm Calm -- 30.32 in1026.8 mb 0.00 in0.0 mm 0.00 in0.0 mm 0.00 in0.0 mm
02:05 AM 29.1°F-1.6°C 24.0°F-4.4°C 81% Calm Calm -- 30.32 in1026.8 mb 0.00 in0.0 mm 0.00 in0.0 mm 0.00 in0.0 mm
01:59 AM 29.3°F-1.5°C 24.2°F-4.3°C 81% Calm Calm -- 30.32 in1026.8 mb 0.00 in0.0 mm 0.00 in0.0 mm 0.00 in0.0 mm
01:55 AM 29.5°F-1.4°C 24.1°F-4.4°C 80% Calm Calm -- 30.32 in1026.8 mb 0.00 in0.0 mm 0.00 in0.0 mm 0.00 in0.0 mm
01:50 AM 29.5°F-1.4°C 24.1°F-4.4°C 80% Calm Calm -- 30.32 in1026.8 mb 0.00 in0.0 mm 0.00 in0.0 mm 0.00 in0.0 mm
01:45 AM 29.5°F-1.4°C 24.1°F-4.4°C 80% Calm Calm -- 30.32 in1026.8 mb 0.00 in0.0 mm 0.00 in0.0 mm 0.00 in0.0 mm
01:40 AM 29.7°F-1.3°C 24.3°F-4.3°C 80% Calm Calm -- 30.32 in1026.8 mb 0.00 in0.0 mm 0.00 in0.0 mm 0.00 in0.0 mm
01:35 AM 29.7°F-1.3°C 24.3°F-4.3°C 80% Calm Calm -- 30.32 in1026.8 mb 0.00 in0.0 mm 0.00 in0.0 mm 0.00 in0.0 mm
01:30 AM 29.7°F-1.3°C 24.6°F-4.1°C 81% Calm Calm -- 30.32 in1026.8 mb 0.00 in0.0 mm 0.00 in0.0 mm 0.00 in0.0 mm
01:24 AM 29.7°F-1.3°C 24.3°F-4.3°C 80% Calm Calm -- 30.32 in1026.8 mb 0.00 in0.0 mm 0.00 in0.0 mm 0.00 in0.0 mm
01:20 AM 29.7°F-1.3°C 24.3°F-4.3°C 80% Calm Calm -- 30.32 in1026.8 mb 0.00 in0.0 mm 0.00 in0.0 mm 0.00 in0.0 mm
01:15 AM 29.8°F-1.2°C 24.4°F-4.2°C 80% Calm Calm -- 30.32 in1026.8 mb 0.00 in0.0 mm 0.00 in0.0 mm 0.00 in0.0 mm
01:10 AM 30.0°F-1.1°C 24.6°F-4.1°C 80% Calm Calm -- 30.32 in1026.8 mb 0.00 in0.0 mm 0.00 in0.0 mm 0.00 in0.0 mm
01:05 AM 29.8°F-1.2°C 24.4°F-4.2°C 80% Calm Calm -- 30.32 in1026.8 mb 0.00 in0.0 mm 0.00 in0.0 mm 0.00 in0.0 mm
12:59 AM 29.7°F-1.3°C 24.3°F-4.3°C 80% Calm Calm -- 30.32 in1026.8 mb 0.00 in0.0 mm 0.00 in0.0 mm 0.00 in0.0 mm
12:55 AM 29.5°F-1.4°C 24.1°F-4.4°C 80% Calm Calm -- 30.32 in1026.8 mb 0.00 in0.0 mm 0.00 in0.0 mm 0.00 in0.0 mm
12:50 AM 29.5°F-1.4°C 24.1°F-4.4°C 80% Calm Calm -- 30.32 in1026.8 mb 0.00 in0.0 mm 0.00 in0.0 mm 0.00 in0.0 mm
12:45 AM 29.5°F-1.4°C 23.8°F-4.6°C 79% Calm Calm -- 30.32 in1026.8 mb 0.00 in0.0 mm 0.00 in0.0 mm 0.00 in0.0 mm
12:40 AM 29.5°F-1.4°C 23.8°F-4.6°C 79% Calm Calm -- 30.32 in1026.8 mb 0.00 in0.0 mm 0.00 in0.0 mm 0.00 in0.0 mm
12:35 AM 29.5°F-1.4°C 23.8°F-4.6°C 79% Calm Calm -- 30.32 in1026.8 mb 0.00 in0.0 mm 0.00 in0.0 mm 0.00 in0.0 mm
12:30 AM 29.7°F-1.3°C 24.0°F-4.4°C 79% Calm Calm -- 30.32 in1026.8 mb 0.00 in0.0 mm 0.00 in0.0 mm 0.00 in0.0 mm
12:25 AM 30.0°F-1.1°C 24.3°F-4.3°C 79% Calm Calm -- 30.32 in1026.8 mb 0.00 in0.0 mm 0.00 in0.0 mm 0.00 in0.0 mm
12:20 AM 30.2°F-1.0°C 24.5°F-4.2°C 79% Calm Calm -- 30.32 in1026.8 mb 0.00 in0.0 mm 0.00 in0.0 mm 0.00 in0.0 mm
12:15 AM 30.4°F-0.9°C 24.7°F-4.1°C 79% Calm Calm -- 30.32 in1026.8 mb 0.00 in0.0 mm 0.00 in0.0 mm 0.00 in0.0 mm
12:10 AM 30.6°F-0.8°C 24.8°F-4.0°C 79% Calm Calm -- 30.32 in1026.8 mb 0.00 in0.0 mm 0.00 in0.0 mm 0.00 in0.0 mm
12:05 AM 30.6°F-0.8°C 24.8°F-4.0°C 79% Calm Calm -- 30.32 in1026.8 mb 0.00 in0.0 mm 0.00 in0.0 mm 0.00 in0.0 mm
12:00 AM 30.6°F-0.8°C 24.5°F-4.2°C 78% Calm Calm -- 30.32 in1026.8 mb 0.00 in0.0 mm 0.00 in0.0 mm 0.00 in0.0 mm